Time;durP1;ratioP1;P1;durP2;ratioP2;P2;SDS_P1;SDS_P2;PMS_P1;PMS_P2;Temp;Humidity;BMP_temperature;BMP_pressure;BME280_temperature;BME280_humidity;BME280_pressure;Samples;Min_cycle;Max_cycle;Signal;HPM_P1;HPM_P2
2022/11/12 00:00:52;;;;;;;42.10;20.50;;;;;;;12.28;100.00;100054.66;6306402;22;20447;-85
2022/11/12 00:03:19;;;;;;;34.55;20.38;;;;;;;12.34;100.00;100056.56;6306002;22;20102;-85
2022/11/12 00:05:49;;;;;;;39.70;20.35;;;;;;;12.42;100.00;100055.66;6306096;22;20013;-84
2022/11/12 00:08:15;;;;;;;32.08;20.30;;;;;;;12.52;100.00;100055.38;6222923;22;20057;-85
2022/11/12 00:10:40;;;;;;;45.30;21.25;;;;;;;12.66;100.00;100049.31;6275353;22;20086;-84
2022/11/12 00:13:06;;;;;;;39.90;20.33;;;;;;;12.79;100.00;100051.28;6275081;22;20004;-86
2022/11/12 00:15:34;;;;;;;39.78;19.35;;;;;;;12.80;100.00;100057.38;6275255;22;20568;-85
2022/11/12 00:18:00;;;;;;;30.20;18.67;;;;;;;12.89;100.00;100053.63;6247980;22;20009;-86
2022/11/12 00:20:26;;;;;;;35.70;20.30;;;;;;;12.97;100.00;100064.09;6247993;22;20380;-86
2022/11/12 00:22:52;;;;;;;31.75;19.73;;;;;;;13.04;100.00;100068.59;6242979;23;20451;-86
2022/11/12 00:25:27;;;;;;;33.78;18.60;;;;;;;13.06;100.00;100071.88;6242977;23;20048;-85
2022/11/12 00:27:52;;;;;;;36.80;18.55;;;;;;;13.01;100.00;100069.78;6218354;23;20012;-85
2022/11/12 00:30:21;;;;;;;30.42;18.15;;;;;;;13.11;100.00;100075.59;6243280;23;20012;-85
2022/11/12 00:32:49;;;;;;;29.40;16.73;;;;;;;13.18;100.00;100067.75;6244399;22;20004;-85
2022/11/12 00:35:15;;;;;;;33.78;17.45;;;;;;;13.24;100.00;100074.91;6245341;22;20466;-85
2022/11/12 00:37:44;;;;;;;29.67;17.38;;;;;;;13.23;100.00;100081.19;6243318;23;20004;-84
2022/11/12 00:40:09;;;;;;;26.92;17.08;;;;;;;13.31;100.00;100085.53;6244182;23;20012;-87
2022/11/12 00:42:35;;;;;;;31.83;17.05;;;;;;;13.21;100.00;100072.66;6243147;23;20012;-85
2022/11/12 00:45:01;;;;;;;27.02;14.88;;;;;;;13.35;100.00;100070.13;6244673;23;20111;-85
2022/11/12 00:47:30;;;;;;;26.25;16.05;;;;;;;13.31;100.00;100074.16;6242933;23;20012;-86
2022/11/12 00:49:55;;;;;;;26.40;14.73;;;;;;;13.34;100.00;100069.34;6243903;22;20035;-85
2022/11/12 00:52:21;;;;;;;26.17;14.98;;;;;;;13.34;100.00;100079.88;6244097;23;20036;-86
2022/11/12 00:54:47;;;;;;;26.75;15.35;;;;;;;13.23;100.00;100097.00;6244528;23;20315;-86
2022/11/12 00:57:13;;;;;;;22.67;14.05;;;;;;;13.31;100.00;100076.78;6244027;22;20016;-85
2022/11/12 00:59:39;;;;;;;34.67;14.35;;;;;;;13.39;100.00;100081.97;6243736;23;20008;-86
2022/11/12 01:02:05;;;;;;;24.10;13.88;;;;;;;13.47;100.00;100073.16;6243603;22;20090;-86
2022/11/12 01:04:30;;;;;;;27.58;15.20;;;;;;;13.45;100.00;100083.88;6244155;23;20342;-85
2022/11/12 01:06:59;;;;;;;26.27;13.00;;;;;;;13.34;100.00;100082.53;6243416;23;20008;-86
2022/11/12 01:09:25;;;;;;;21.92;13.05;;;;;;;13.45;100.00;100081.25;6245083;22;20014;-85
2022/11/12 01:11:54;;;;;;;19.45;13.32;;;;;;;13.40;100.00;100083.59;6245112;22;20004;-86
2022/11/12 01:14:19;;;;;;;23.25;12.65;;;;;;;13.41;100.00;100077.31;6243355;23;20054;-86
2022/11/12 01:16:45;;;;;;;28.92;14.48;;;;;;;13.33;100.00;100082.69;6244377;22;20431;-85
2022/11/12 01:19:12;;;;;;;23.13;13.13;;;;;;;13.17;100.00;100083.75;6244514;22;20472;-85
2022/11/12 01:21:40;;;;;;;23.27;12.43;;;;;;;13.31;100.00;100080.25;6252748;22;20008;-86
2022/11/12 01:24:07;;;;;;;23.52;12.85;;;;;;;13.23;100.00;100083.00;6247915;22;20341;-86
2022/11/12 01:26:34;;;;;;;23.13;13.18;;;;;;;13.26;100.00;100079.97;6275212;22;20087;-86
2022/11/12 01:28:59;;;;;;;29.33;13.20;;;;;;;13.23;100.00;100072.44;6274654;22;20011;-86
2022/11/12 01:31:27;;;;;;;29.98;14.40;;;;;;;13.19;100.00;100063.28;6274309;22;20011;-86
2022/11/12 01:33:58;;;;;;;25.75;13.48;;;;;;;13.02;100.00;100049.53;6275211;22;20008;-86
2022/11/12 01:36:26;;;;;;;23.00;13.88;;;;;;;13.04;100.00;100048.31;6273308;22;20342;-85
2022/11/12 01:38:52;;;;;;;22.67;13.98;;;;;;;12.84;100.00;100042.84;6274985;22;20004;-87
2022/11/12 01:41:22;;;;;;;16.95;13.45;;;;;;;12.73;100.00;100040.66;6222968;22;20012;-86
2022/11/12 01:44:05;;;;;;;20.98;13.98;;;;;;;12.65;100.00;100031.88;6248246;22;20062;-85
2022/11/12 01:46:31;;;;;;;24.55;14.63;;;;;;;12.66;100.00;100024.78;6274885;22;20087;-84
2022/11/12 01:49:12;;;;;;;27.70;14.43;;;;;;;12.35;100.00;100023.97;6275181;22;20012;-86
2022/11/12 01:51:43;;;;;;;29.00;15.02;;;;;;;12.33;100.00;100025.16;6274990;22;20011;-85
2022/11/12 01:54:15;;;;;;;24.52;14.57;;;;;;;12.31;100.00;100027.97;6275436;22;20061;-85
2022/11/12 01:56:41;;;;;;;24.13;14.40;;;;;;;12.27;100.00;100031.97;6275546;22;20004;-85
2022/11/12 01:59:13;;;;;;;23.63;14.68;;;;;;;12.22;100.00;100043.03;6248295;22;20015;-86
2022/11/12 02:01:39;;;;;;;25.55;14.50;;;;;;;12.25;100.00;100033.97;6248194;22;20441;-85
2022/11/12 02:04:05;;;;;;;24.45;14.90;;;;;;;12.34;100.00;100039.97;6248218;22;20007;-85
2022/11/12 02:06:33;;;;;;;27.20;15.32;;;;;;;12.41;100.00;100044.34;6275020;22;20012;-85
2022/11/12 02:08:59;;;;;;;26.65;15.32;;;;;;;12.42;100.00;100040.69;6274708;22;20018;-85
2022/11/12 02:11:25;;;;;;;25.05;16.65;;;;;;;12.41;100.00;100046.97;6247791;22;20094;-86
2022/11/12 02:14:00;;;;;;;27.65;15.27;;;;;;;12.40;100.00;100040.06;6247386;22;20505;-86
2022/11/12 02:17:15;;;;;;;30.70;16.98;;;;;;;12.61;100.00;100035.88;6247550;22;20150;-85
2022/11/12 02:19:40;;;;;;;35.30;17.17;;;;;;;12.58;100.00;100041.50;6203532;22;20442;-85
2022/11/12 02:22:06;;;;;;;29.02;16.77;;;;;;;12.62;100.00;100048.03;6274362;22;20060;-85
2022/11/12 02:24:33;;;;;;;28.88;16.98;;;;;;;12.63;100.00;100035.69;6247480;22;20338;-85
2022/11/12 02:26:59;;;;;;;27.90;15.73;;;;;;;12.76;100.00;100027.13;6274817;22;20018;-86
2022/11/12 02:29:25;;;;;;;23.70;14.48;;;;;;;12.76;100.00;100035.03;6247479;22;20094;-86
2022/11/12 02:31:51;;;;;;;25.10;15.57;;;;;;;12.82;100.00;100034.31;6221939;22;20391;-85
2022/11/12 02:34:17;;;;;;;35.00;17.00;;;;;;;12.63;100.00;100022.50;6274525;22;20042;-85
2022/11/12 02:36:43;;;;;;;32.80;17.63;;;;;;;12.74;100.00;100031.75;6246980;22;20039;-86
2022/11/12 02:39:09;;;;;;;22.77;15.73;;;;;;;12.59;100.00;100040.50;6274023;22;20062;-84
2022/11/12 02:41:34;;;;;;;28.45;15.85;;;;;;;12.61;100.00;100027.97;6274652;22;20007;-86
2022/11/12 02:44:00;;;;;;;28.60;15.43;;;;;;;12.71;100.00;100025.84;6222017;22;20074;-85
2022/11/12 02:46:25;;;;;;;31.00;16.48;;;;;;;12.63;100.00;100025.13;6274392;22;20499;-85
2022/11/12 02:48:51;;;;;;;25.40;15.30;;;;;;;12.79;100.00;100013.59;6247670;22;20079;-85
2022/11/12 02:51:16;;;;;;;26.80;16.80;;;;;;;12.65;100.00;100016.06;6274219;22;20096;-86
2022/11/12 02:53:42;;;;;;;26.38;15.75;;;;;;;12.70;100.00;100020.78;6247251;22;20019;-86
2022/11/12 02:56:08;;;;;;;30.85;16.88;;;;;;;12.73;100.00;100020.41;6248441;22;20012;-85
2022/11/12 02:58:33;;;;;;;25.73;16.13;;;;;;;12.65;100.00;100018.69;6248065;22;20012;-85
2022/11/12 03:00:59;;;;;;;24.60;15.45;;;;;;;12.77;100.00;100023.47;6275293;22;20418;-85
2022/11/12 03:03:24;;;;;;;38.13;16.50;;;;;;;12.74;100.00;100015.94;6275747;22;20087;-85
2022/11/12 03:06:02;;;;;;;25.08;15.30;;;;;;;12.81;100.00;100012.41;6277006;22;20073;-85
2022/11/12 03:08:28;;;;;;;30.48;16.35;;;;;;;12.70;100.00;100021.59;6277059;22;20069;-86
2022/11/12 03:10:54;;;;;;;25.20;16.02;;;;;;;12.65;100.00;100018.69;6249517;22;20008;-86
2022/11/12 03:13:20;;;;;;;25.50;16.35;;;;;;;12.73;100.00;100024.84;6277096;22;20061;-85
2022/11/12 03:15:45;;;;;;;28.63;15.98;;;;;;;12.23;100.00;100025.44;6250217;22;20011;-86
2022/11/12 03:18:11;;;;;;;28.88;16.30;;;;;;;12.50;100.00;100031.06;6250035;22;20013;-86
2022/11/12 03:20:37;;;;;;;22.25;14.65;;;;;;;12.56;100.00;100036.41;6249843;22;20007;-85
2022/11/12 03:23:08;;;;;;;23.38;15.35;;;;;;;12.64;100.00;100032.88;6277211;22;20053;-85
2022/11/12 03:25:34;;;;;;;33.40;15.18;;;;;;;12.68;100.00;100034.13;6249406;22;20016;-86
2022/11/12 03:28:05;;;;;;;27.80;15.40;;;;;;;12.60;100.00;100036.03;6250088;22;20069;-86
2022/11/12 03:30:37;;;;;;;25.83;16.58;;;;;;;12.77;100.00;100032.22;6276368;22;20011;-86
2022/11/12 03:33:03;;;;;;;25.25;15.40;;;;;;;12.71;100.00;100035.59;6275943;22;20019;-86
2022/11/12 03:35:29;;;;;;;23.60;15.60;;;;;;;12.69;100.00;100030.50;6248765;22;20020;-85
2022/11/12 03:37:55;;;;;;;30.33;15.00;;;;;;;12.63;100.00;100031.25;6276391;22;20007;-85
2022/11/12 03:40:20;;;;;;;22.70;14.45;;;;;;;12.76;100.00;100029.75;6276197;22;20011;-85
2022/11/12 03:42:50;;;;;;;23.05;13.88;;;;;;;12.66;100.00;100030.88;6276115;22;20008;-86
2022/11/12 03:45:17;;;;;;;29.80;14.68;;;;;;;12.43;100.00;100026.53;6276116;22;20019;-86
2022/11/12 03:47:45;;;;;;;22.60;14.77;;;;;;;12.58;100.00;100023.09;6276029;22;20019;-86
2022/11/12 03:50:12;;;;;;;24.85;13.65;;;;;;;12.80;100.00;100028.41;6249016;22;20008;-86
2022/11/12 03:52:42;;;;;;;25.52;13.68;;;;;;;12.70;100.00;100026.84;6248654;22;20380;-86
2022/11/12 03:55:08;;;;;;;22.23;13.63;;;;;;;12.67;100.00;100032.50;6275190;22;20060;-87
2022/11/12 03:57:33;;;;;;;22.95;13.27;;;;;;;12.67;100.00;100037.75;6248662;22;20094;-86
2022/11/12 03:59:59;;;;;;;21.75;13.73;;;;;;;12.53;100.00;100031.53;6276042;22;20016;-86
2022/11/12 04:02:25;;;;;;;21.90;13.25;;;;;;;12.74;100.00;100031.75;6275546;22;20093;-86
2022/11/12 04:10:21;;;;;;;18.73;11.88;;;;;;;12.56;100.00;100025.88;6247875;22;20004;-85
2022/11/12 04:15:31;;;;;;;20.05;12.60;;;;;;;12.53;100.00;100026.25;6276109;22;20008;-85
2022/11/12 04:21:49;;;;;;;25.02;13.98;;;;;;;12.52;100.00;100015.88;6277311;22;20011;-86
2022/11/12 04:23:30;;;;;;;19.77;13.13;;;;;;;12.52;100.00;100014.09;6275168;22;20339;-86
2022/11/12 04:30:14;;;;;;;19.73;12.45;;;;;;;12.63;100.00;100004.91;6275223;22;20095;-86
2022/11/12 04:31:25;;;;;;;23.00;12.40;;;;;;;12.59;100.00;100006.28;6275107;22;20477;-86
2022/11/12 04:33:50;;;;;;;21.10;12.57;;;;;;;12.41;100.00;99996.94;6248178;22;20050;-86
2022/11/12 04:36:16;;;;;;;23.73;12.18;;;;;;;12.35;100.00;100000.28;6275176;22;20008;-85
2022/11/12 04:38:42;;;;;;;22.48;13.07;;;;;;;12.38;100.00;100002.56;6275221;22;20019;-86
2022/11/12 04:46:37;;;;;;;21.52;12.20;;;;;;;12.28;100.00;100016.00;6274917;22;20091;-86
2022/11/12 04:49:03;;;;;;;20.75;11.77;;;;;;;12.46;100.00;100027.97;6275463;22;20133;-85
2022/11/12 04:54:12;;;;;;;23.30;12.43;;;;;;;12.47;100.00;100026.16;6275057;22;20019;-86
2022/11/12 04:56:38;;;;;;;17.63;11.80;;;;;;;12.62;100.00;100031.41;6222643;22;20081;-86
2022/11/12 04:59:04;;;;;;;16.70;11.25;;;;;;;12.67;100.00;100031.66;6247784;22;20015;-86
2022/11/12 05:01:30;;;;;;;17.27;11.00;;;;;;;12.60;100.00;100015.81;6275013;22;20039;-86
2022/11/12 05:03:55;;;;;;;21.55;12.35;;;;;;;12.65;100.00;100020.50;6274741;22;20007;-86
2022/11/12 05:09:05;;;;;;;18.88;11.18;;;;;;;12.57;100.00;100006.44;6274716;22;20011;-86
2022/11/12 05:11:31;;;;;;;18.92;10.43;;;;;;;12.34;100.00;100011.00;6247922;22;20010;-85
2022/11/12 05:13:57;;;;;;;15.95;10.68;;;;;;;12.32;100.00;100008.53;6248054;22;20338;-85
2022/11/12 05:16:22;;;;;;;18.73;10.27;;;;;;;12.23;100.00;100009.66;6274566;22;20025;-85
2022/11/12 05:18:48;;;;;;;19.38;10.48;;;;;;;12.20;100.00;100010.81;6274955;22;20015;-85
2022/11/12 05:23:58;;;;;;;18.02;10.45;;;;;;;12.14;100.00;100009.72;6247573;22;20350;-85
2022/11/12 05:26:23;;;;;;;21.58;10.50;;;;;;;11.98;100.00;100012.47;6274515;22;20014;-86
2022/11/12 05:28:49;;;;;;;16.55;8.50;;;;;;;11.85;100.00;100019.19;6247342;22;20014;-85
2022/11/12 05:31:14;;;;;;;15.50;9.65;;;;;;;11.78;100.00;100006.94;6274369;22;20043;-86
2022/11/12 05:33:40;;;;;;;13.68;8.70;;;;;;;11.79;100.00;100022.53;6275036;22;20015;-86
2022/11/12 05:36:06;;;;;;;15.77;8.88;;;;;;;11.81;100.00;100015.28;6247245;22;20111;-86
2022/11/12 05:38:32;;;;;;;15.73;9.23;;;;;;;11.95;100.00;100015.47;6274835;22;20018;-87
2022/11/12 05:40:57;;;;;;;14.05;8.18;;;;;;;11.91;100.00;100015.03;6247606;22;20011;-86
2022/11/12 05:43:23;;;;;;;14.57;8.13;;;;;;;11.92;100.00;100013.22;6274601;22;20322;-86
2022/11/12 05:45:49;;;;;;;14.57;8.38;;;;;;;11.77;100.00;100008.72;6274902;22;20015;-85
2022/11/12 05:48:15;;;;;;;19.27;8.55;;;;;;;11.80;100.00;100005.75;6274161;22;20007;-87
2022/11/12 05:50:40;;;;;;;12.15;8.90;;;;;;;11.80;100.00;100004.94;6274218;22;20457;-86
2022/11/12 05:53:06;;;;;;;14.07;7.90;;;;;;;11.72;100.00;100005.81;6274537;22;20003;-85
2022/11/12 05:55:32;;;;;;;14.25;8.45;;;;;;;11.52;100.00;100003.69;6274541;22;20334;-86
2022/11/12 05:58:03;;;;;;;17.88;8.63;;;;;;;11.28;100.00;100013.41;6247586;22;20079;-86
2022/11/12 06:00:29;;;;;;;15.25;8.18;;;;;;;11.17;100.00;100005.91;6247494;22;20330;-85
2022/11/12 06:02:57;;;;;;;13.05;8.02;;;;;;;11.04;100.00;100005.69;6274523;22;20003;-86
2022/11/12 06:05:23;;;;;;;15.65;8.73;;;;;;;10.90;100.00;100015.94;6274107;22;20071;-85
2022/11/12 06:07:50;;;;;;;12.73;8.85;;;;;;;10.73;100.00;100014.38;6274723;22;20012;-87
2022/11/12 06:10:15;;;;;;;20.67;8.82;;;;;;;10.72;100.00;100013.56;6274885;22;20008;-86
2022/11/12 06:12:41;;;;;;;15.57;8.68;;;;;;;10.63;100.00;100018.03;6274732;22;20008;-86
2022/11/12 06:15:08;;;;;;;14.65;8.15;;;;;;;10.59;100.00;100018.53;6274486;22;20323;-86
2022/11/12 06:17:33;;;;;;;15.35;8.77;;;;;;;10.54;100.00;100021.66;6222263;22;20038;-86
2022/11/12 06:19:59;;;;;;;14.30;8.57;;;;;;;10.48;100.00;100022.34;6246980;22;20342;-86
2022/11/12 06:22:25;;;;;;;17.92;8.60;;;;;;;10.38;100.00;100018.06;6247288;22;20103;-86
2022/11/12 06:24:51;;;;;;;19.88;9.23;;;;;;;10.35;100.00;100039.41;6274700;22;20434;-85
2022/11/12 06:27:16;;;;;;;17.95;9.07;;;;;;;10.44;100.00;100034.97;6247288;22;20026;-86
2022/11/12 06:29:42;;;;;;;18.52;9.10;;;;;;;10.49;100.00;100037.91;6274845;22;20099;-86
2022/11/12 06:32:07;;;;;;;19.48;8.80;;;;;;;10.62;100.00;100029.53;6247568;22;20015;-86
2022/11/12 06:34:33;;;;;;;17.13;8.65;;;;;;;10.68;100.00;100038.50;6247323;22;20008;-86
2022/11/12 06:36:58;;;;;;;19.83;9.13;;;;;;;10.81;100.00;100032.72;6274003;22;20008;-85
2022/11/12 06:39:24;;;;;;;17.05;9.43;;;;;;;10.91;100.00;100030.69;6276730;22;20007;-85
2022/11/12 06:41:50;;;;;;;18.58;9.52;;;;;;;10.87;100.00;100021.53;6276208;22;20054;-85
2022/11/12 06:44:15;;;;;;;12.50;8.35;;;;;;;10.92;100.00;100008.69;6249441;22;20039;-86
2022/11/12 06:46:41;;;;;;;11.05;7.65;;;;;;;11.12;100.00;100024.00;6276049;22;20147;-86
2022/11/12 06:49:06;;;;;;;12.20;7.80;;;;;;;11.11;100.00;100019.75;6248943;22;20061;-85
2022/11/12 06:51:33;;;;;;;19.23;8.13;;;;;;;11.10;100.00;100026.81;6276339;22;20445;-86
2022/11/12 06:53:59;;;;;;;11.57;7.25;;;;;;;11.26;100.00;100033.78;6249022;22;20012;-85
2022/11/12 06:56:24;;;;;;;15.90;7.03;;;;;;;11.35;100.00;100041.59;6249298;22;20015;-85
2022/11/12 06:58:50;;;;;;;10.45;7.20;;;;;;;11.44;100.00;100030.06;6276570;22;20039;-85
2022/11/12 07:01:16;;;;;;;13.10;8.75;;;;;;;11.55;100.00;100031.44;6275770;22;20012;-86
2022/11/12 07:03:43;;;;;;;13.45;8.00;;;;;;;11.65;100.00;100036.47;6276382;22;20086;-86
2022/11/12 07:06:11;;;;;;;14.85;9.40;;;;;;;11.69;100.00;100038.56;6250016;22;20464;-86
2022/11/12 07:08:37;;;;;;;18.80;9.48;;;;;;;11.67;100.00;100034.47;6276573;22;20430;-86
2022/11/12 07:11:04;;;;;;;14.32;7.40;;;;;;;11.65;100.00;100029.38;6276539;22;20008;-85
2022/11/12 07:13:31;;;;;;;10.68;6.45;;;;;;;11.78;100.00;100031.41;6249596;22;20311;-86
2022/11/12 07:15:58;;;;;;;11.90;6.88;;;;;;;11.95;100.00;100037.34;6277213;22;20018;-86
2022/11/12 07:18:25;;;;;;;13.90;6.97;;;;;;;11.98;100.00;100038.78;6249017;22;20103;-85
2022/11/12 07:20:56;;;;;;;9.98;5.97;;;;;;;12.05;100.00;100039.75;6275784;22;20015;-85
2022/11/12 07:23:22;;;;;;;10.18;5.65;;;;;;;12.00;100.00;100036.81;6275485;22;20101;-85
2022/11/12 07:25:59;;;;;;;8.18;5.75;;;;;;;12.05;100.00;100026.59;6248764;22;20435;-86
2022/11/12 07:28:25;;;;;;;9.52;5.28;;;;;;;12.05;100.00;100013.44;6248655;22;20015;-85
2022/11/12 07:31:03;;;;;;;7.50;5.57;;;;;;;12.19;100.00;100030.25;6275978;22;20015;-84
2022/11/12 07:33:33;;;;;;;11.07;5.65;;;;;;;12.12;100.00;100014.34;6222933;22;20033;-84
2022/11/12 07:36:05;;;;;;;7.38;5.25;;;;;;;12.29;100.00;100035.25;6223339;22;20011;-86
2022/11/12 07:38:33;;;;;;;7.55;4.90;;;;;;;12.21;100.00;100030.88;6249747;22;20008;-86
2022/11/12 07:41:10;;;;;;;9.00;5.78;;;;;;;11.96;100.00;100046.03;6222724;22;20019;-86
2022/11/12 07:43:39;;;;;;;12.57;6.38;;;;;;;12.09;100.00;100042.84;6223391;22;20008;-85
2022/11/12 07:46:16;;;;;;;12.30;6.05;;;;;;;12.16;100.00;100035.88;6276056;22;20007;-86
2022/11/12 07:48:43;;;;;;;7.53;6.03;;;;;;;12.17;100.00;100042.75;6275489;22;20034;-85
2022/11/12 07:51:17;;;;;;;9.52;5.95;;;;;;;12.19;100.00;100030.25;6249137;22;20055;-86
2022/11/12 07:53:46;;;;;;;11.55;5.72;;;;;;;12.28;100.00;100030.97;6248789;22;20023;-87
2022/11/12 07:56:17;;;;;;;11.88;5.78;;;;;;;12.33;100.00;100031.25;6277712;22;20016;-86
2022/11/12 07:58:47;;;;;;;12.52;5.97;;;;;;;12.33;100.00;100022.53;6250056;22;20042;-85
2022/11/12 08:01:40;;;;;;;8.25;5.18;;;;;;;12.40;100.00;100024.25;6250391;22;20011;-89
2022/11/12 08:04:30;;;;;;;9.55;6.05;;;;;;;12.53;100.00;100020.16;6226660;22;20016;-86
2022/11/12 08:07:01;;;;;;;11.68;5.90;;;;;;;12.37;100.00;100000.91;6225817;22;20490;-86
2022/11/12 08:09:33;;;;;;;10.90;5.85;;;;;;;12.57;100.00;100005.63;6226916;22;20019;-84
2022/11/12 08:12:02;;;;;;;7.78;5.85;;;;;;;12.50;100.00;100018.72;6224228;22;20150;-83
2022/11/12 08:14:27;;;;;;;11.32;6.35;;;;;;;12.37;100.00;100014.06;6222806;22;20059;-83
2022/11/12 08:16:53;;;;;;;12.02;5.50;;;;;;;12.64;100.00;100026.78;6275851;22;20094;-84
2022/11/12 08:19:21;;;;;;;14.90;6.18;;;;;;;12.60;100.00;100013.19;6248876;22;20454;-85
2022/11/12 08:22:06;;;;;;;9.77;5.43;;;;;;;12.80;100.00;100031.84;6248887;22;20034;-87
2022/11/12 08:25:07;;;;;;;;;;;;;;;;;;;;;
2022/11/12 08:32:08;;;;;;;9.57;5.72;;;;;;;12.70;100.00;100016.31;6153460;23;20375;-87
2022/11/12 08:34:40;;;;;;;10.40;6.10;;;;;;;12.80;100.00;100004.69;6153204;23;20348;-86
2022/11/12 08:44:42;;;;;;;8.38;5.50;;;;;;;13.40;100.00;100015.84;6247571;22;20022;-89
2022/11/12 08:47:07;;;;;;;12.93;6.03;;;;;;;13.35;100.00;100012.13;6252709;22;20449;-87
2022/11/12 08:49:33;;;;;;;9.38;5.90;;;;;;;13.29;100.00;100019.78;6248294;22;20058;-85
2022/11/12 08:51:59;;;;;;;9.10;6.03;;;;;;;13.44;100.00;100029.50;6222909;22;20065;-87
2022/11/12 08:54:24;;;;;;;14.68;6.28;;;;;;;13.48;100.00;100012.28;6273073;22;20114;-83
2022/11/12 08:56:50;;;;;;;11.55;6.47;;;;;;;13.46;100.00;100030.13;6246125;22;20011;-81
2022/11/12 08:59:17;;;;;;;13.07;7.07;;;;;;;13.34;100.00;100032.41;6246191;22;20399;-81
2022/11/12 09:01:48;;;;;;;11.13;6.35;;;;;;;13.51;100.00;100034.84;6246109;22;20011;-82
2022/11/12 09:04:16;;;;;;;10.68;6.95;;;;;;;13.49;100.00;100024.47;6248266;22;20045;-84
2022/11/12 09:06:42;;;;;;;12.23;6.20;;;;;;;13.55;100.00;100017.63;6247189;22;20012;-82
2022/11/12 09:09:13;;;;;;;13.70;6.32;;;;;;;13.63;100.00;100022.75;6222878;22;20006;-83
2022/11/12 09:11:39;;;;;;;13.77;6.88;;;;;;;13.55;100.00;100026.34;6248086;22;20019;-82
2022/11/12 09:14:04;;;;;;;12.27;6.00;;;;;;;13.82;100.00;100023.09;6273972;22;20019;-81
2022/11/12 09:16:30;;;;;;;10.30;6.22;;;;;;;13.84;100.00;100021.91;6247242;22;20016;-81
2022/11/12 09:18:55;;;;;;;9.60;6.40;;;;;;;13.88;100.00;100018.88;6222292;22;20008;-81
2022/11/12 09:21:23;;;;;;;8.15;6.43;;;;;;;13.70;100.00;100020.19;6247490;22;20050;-81
2022/11/12 09:23:49;;;;;;;12.60;7.13;;;;;;;14.01;100.00;100026.91;6247624;22;20030;-81
2022/11/12 09:26:14;;;;;;;13.73;7.13;;;;;;;14.07;100.00;100031.41;6274477;22;20007;-82
2022/11/12 09:28:40;;;;;;;11.77;7.05;;;;;;;14.02;100.00;100039.09;6274883;22;20082;-81
2022/11/12 09:31:07;;;;;;;11.07;6.30;;;;;;;14.00;100.00;100035.84;6248000;22;20493;-82
2022/11/12 09:33:33;;;;;;;13.02;6.57;;;;;;;13.94;100.00;100033.94;6274883;22;20007;-81
2022/11/12 09:36:01;;;;;;;11.55;6.70;;;;;;;13.97;100.00;100030.94;6248345;22;20016;-81
2022/11/12 09:38:27;;;;;;;11.18;7.03;;;;;;;13.87;100.00;100036.56;6223766;22;20026;-82
2022/11/12 09:41:00;;;;;;;9.77;6.65;;;;;;;14.10;100.00;100041.59;6273202;22;20039;-82
2022/11/12 09:43:46;;;;;;;14.50;6.88;;;;;;;14.22;100.00;100041.06;6273501;22;20042;-84
2022/11/12 09:46:30;;;;;;;8.30;6.25;;;;;;;14.18;100.00;100045.91;6273757;22;20023;-82
2022/11/12 09:49:03;;;;;;;10.90;5.80;;;;;;;14.14;100.00;100034.09;6274027;22;20007;-83
2022/11/12 09:51:32;;;;;;;15.15;6.07;;;;;;;14.25;100.00;100030.09;6273516;22;20011;-85
2022/11/12 09:54:05;;;;;;;13.00;6.20;;;;;;;14.44;100.00;100031.22;6272786;22;20069;-86
2022/11/12 09:56:30;;;;;;;9.38;6.07;;;;;;;14.21;100.00;100031.50;6274143;22;20361;-84
2022/11/12 09:58:56;;;;;;;11.10;6.43;;;;;;;14.43;100.00;100019.84;6246205;22;20019;-83
2022/11/12 10:01:42;;;;;;;9.48;6.18;;;;;;;14.36;100.00;100024.28;6273452;22;20019;-86
2022/11/12 10:04:42;;;;;;;10.77;6.85;;;;;;;14.35;100.00;100022.66;6273954;22;20011;-83
2022/11/12 10:07:20;;;;;;;9.55;5.97;;;;;;;14.28;100.00;100029.72;6246708;22;20035;-84
2022/11/12 10:09:57;;;;;;;9.63;6.28;;;;;;;14.04;100.00;100030.97;6273061;22;20109;-84
2022/11/12 10:12:44;;;;;;;12.30;6.35;;;;;;;13.87;100.00;100044.47;6245083;22;20381;-83
2022/11/12 10:19:03;;;;;;;10.75;5.72;;;;;;;14.10;100.00;100038.94;6274154;22;20414;-84
2022/11/12 10:21:41;;;;;;;14.15;6.38;;;;;;;13.99;100.00;100036.84;6246755;22;20065;-82
2022/11/12 10:24:09;;;;;;;13.23;6.22;;;;;;;14.13;100.00;100033.28;6246873;22;20068;-83
2022/11/12 10:26:37;;;;;;;10.63;6.43;;;;;;;14.07;100.00;100041.97;6273592;22;20008;-83
2022/11/12 10:29:27;;;;;;;11.52;7.38;;;;;;;13.83;100.00;100041.41;6273835;22;20459;-83
2022/11/12 10:31:53;;;;;;;14.30;6.85;;;;;;;13.91;100.00;100043.09;6274333;22;20086;-84
2022/11/12 10:34:21;;;;;;;14.68;7.47;;;;;;;14.09;100.00;100045.22;6274097;22;20324;-85
2022/11/12 10:37:23;;;;;;;15.55;7.78;;;;;;;14.18;100.00;100045.91;6275301;22;20007;-84
2022/11/12 10:39:51;;;;;;;13.52;7.82;;;;;;;13.92;100.00;100044.72;6248518;22;20031;-84
2022/11/12 10:42:19;;;;;;;13.20;7.85;;;;;;;13.85;100.00;100044.66;6249233;22;20478;-84
2022/11/12 10:44:45;;;;;;;15.43;8.43;;;;;;;13.63;100.00;100050.97;6273049;22;20345;-82
2022/11/12 10:47:19;;;;;;;16.60;10.18;;;;;;;13.33;100.00;100046.63;6274186;22;20047;-81
2022/11/12 10:50:14;;;;;;;15.32;9.50;;;;;;;13.55;100.00;100044.81;6272817;22;20007;-81
2022/11/12 10:52:52;;;;;;;15.07;10.25;;;;;;;13.63;100.00;100045.69;6273359;22;20465;-82
2022/11/12 10:55:28;;;;;;;17.35;10.90;;;;;;;13.82;100.00;100047.69;6273558;22;20011;-83
2022/11/12 10:58:08;;;;;;;21.52;13.27;;;;;;;13.75;100.00;100040.72;6272872;22;20008;-83
2022/11/12 11:00:34;;;;;;;17.90;12.35;;;;;;;13.99;100.00;100039.50;6222342;22;20035;-79
2022/11/12 11:03:05;;;;;;;18.33;11.80;;;;;;;14.31;100.00;100031.97;6247374;22;20008;-79
2022/11/12 11:05:32;;;;;;;19.45;12.02;;;;;;;14.32;100.00;100033.59;6274576;22;20018;-79
2022/11/12 11:07:58;;;;;;;16.42;11.40;;;;;;;14.56;100.00;100036.78;6247355;22;20469;-79
2022/11/12 11:10:37;;;;;;;16.17;12.75;;;;;;;14.46;100.00;100039.78;6273909;22;20103;-79
2022/11/12 11:13:22;;;;;;;19.30;13.63;;;;;;;14.32;100.00;100032.78;6272733;22;20106;-79
2022/11/12 11:16:27;;;;;;;18.45;13.77;;;;;;;14.64;100.00;100027.84;6272481;22;20008;-79
2022/11/12 11:18:59;;;;;;;24.40;15.48;;;;;;;14.26;100.00;100029.91;6272774;22;20085;-79
2022/11/12 11:21:48;;;;;;;24.05;16.67;;;;;;;14.12;100.00;100036.13;6246606;22;20018;-78
2022/11/12 11:24:25;;;;;;;23.48;16.85;;;;;;;14.22;100.00;100022.56;6272318;22;20015;-77
2022/11/12 11:27:04;;;;;;;21.13;15.48;;;;;;;14.00;100.00;100022.66;6274943;22;20046;-77
2022/11/12 11:29:36;;;;;;;22.30;15.07;;;;;;;14.55;100.00;100017.47;6223270;22;20015;-78
2022/11/12 11:32:17;;;;;;;24.00;16.90;;;;;;;14.32;100.00;100006.38;6274994;22;20014;-79
2022/11/12 11:34:52;;;;;;;26.17;16.70;;;;;;;14.59;100.00;100002.03;6275901;22;20008;-78
2022/11/12 11:37:41;;;;;;;22.65;16.10;;;;;;;14.77;100.00;99982.22;6248098;22;20434;-78
2022/11/12 11:40:28;;;;;;;21.20;15.10;;;;;;;14.63;100.00;99976.84;6274806;22;20011;-79
2022/11/12 11:43:45;;;;;;;27.13;17.58;;;;;;;14.64;100.00;99983.75;6222986;22;20114;-78
2022/11/12 11:46:26;;;;;;;22.02;15.32;;;;;;;14.24;100.00;99980.94;6197848;22;20084;-78
2022/11/12 11:49:03;;;;;;;22.45;14.95;;;;;;;14.01;100.00;99976.75;6248280;22;20027;-78
2022/11/12 11:51:39;;;;;;;22.73;15.95;;;;;;;13.85;100.00;99976.03;6272019;22;20023;-77
2022/11/12 11:54:17;;;;;;;31.45;17.50;;;;;;;13.72;100.00;99981.22;6247151;22;20046;-78
2022/11/12 11:56:44;;;;;;;23.65;16.05;;;;;;;13.62;100.00;99975.47;6271411;22;20012;-78
2022/11/12 11:59:31;;;;;;;26.50;16.13;;;;;;;13.76;100.00;99976.38;6274079;22;20398;-78
2022/11/12 12:02:02;;;;;;;23.05;15.27;;;;;;;13.56;100.00;99972.59;6274647;22;20099;-78